Latest Weather Observations for Maningrida Airport

IDD60801

Issued at 12:01 pm CST Sunday 26 June 2016 (issued every 30 minutes, with the page automatically refreshed every 10 minutes)

About weather observations | Map of weather stations | Latest weather observations for NT | Other Formats
Station Details ID: 014405 Name: MANINGRIDA AIRPORT Lat: -12.06 Lon: 134.23 Height: 28.1 m
Data from the previous 72 hours. | See also: Recent months at Maningrida Airport
Date/Time
CST
Temp
°C
App
Temp
°C
Dew
Point
°C
Rel
Hum
%
Delta-T
°C
Wind Press
QNH
hPa
Press
MSL
hPa
Rain since
9am
mm
Dir  Spd
km/h
Gust
km/h
Spd
kts
Gust
kts
26/12:00pm 31.0 31.6 18.7 48 8.0 E 13 20 7 11 1012.5 1012.3 0.0
26/11:30am 31.0 32.0 19.4 50 7.6 ESE 13 19 7 10 1012.9 1012.7 0.0
26/11:00am 30.4 31.8 20.3 54 6.7 SSE 13 20 7 11 1013.3 1013.1 0.0
26/10:30am 29.6 30.7 20.5 58 6.0 SSE 15 20 8 11 1013.6 1013.4 0.0
26/10:00am 28.3 28.9 20.3 62 5.3 SSE 17 24 9 13 1013.8 1013.6 0.0
26/09:30am 27.3 27.8 20.9 68 4.2 SE 19 24 10 13 1013.8 1013.6 0.0
26/09:00am 25.9 26.8 20.9 74 3.3 SE 17 22 9 12 1013.8 1013.6 0.0
26/08:30am 24.9 25.8 20.8 78 2.7 SSE 17 22 9 12 1013.6 1013.4 0.0
26/08:00am 23.6 24.4 20.7 84 1.9 SSE 17 20 9 11 1013.6 1013.4 0.0
26/07:30am 22.0 23.9 20.5 91 1.0 SSE 11 17 6 9 1013.3 1013.1 0.0
26/07:00am 21.5 23.6 20.1 92 0.9 SSE 9 11 5 6 1013.3 1013.1 0.0
26/06:30am 21.8 23.2 20.3 91 1.0 SE 13 15 7 8 1013.0 1012.8 0.0
26/06:00am 21.9 23.6 20.2 90 1.1 SSE 11 15 6 8 1012.5 1012.3 0.0
26/05:30am 21.9 23.2 20.2 90 1.1 SSE 13 15 7 8 1012.2 1012.0 0.0
26/05:00am 22.3 23.9 20.0 87 1.5 SSE 11 15 6 8 1011.9 1011.7 0.0
26/04:30am 22.7 24.4 20.2 86 1.6 SSE 11 15 6 8 1011.8 1011.6 0.0
26/04:00am 22.8 24.1 20.1 85 1.7 SSE 13 15 7 8 1011.7 1011.5 0.0
26/03:30am 23.0 24.2 20.0 83 1.9 SSE 13 17 7 9 1011.6 1011.4 0.0
26/03:00am 23.3 24.6 20.1 82 2.1 SE 13 15 7 8 1011.7 1011.5 0.0
26/02:30am 23.6 24.8 19.9 80 2.4 SE 13 19 7 10 1011.9 1011.7 0.0
26/02:00am 24.0 24.7 19.7 77 2.8 SE 15 20 8 11 1012.0 1011.8 0.0
26/01:30am 24.3 24.8 20.0 77 2.8 SE 17 20 9 11 1012.1 1011.9 0.0
26/01:00am 24.5 25.4 20.0 76 2.9 SE 15 19 8 10 1012.2 1012.0 0.0
26/12:30am 25.0 25.5 20.0 74 3.2 SE 17 22 9 12 1012.2 1012.0 0.0
26/12:00am 25.2 25.6 19.8 72 3.5 SE 17 22 9 12 1012.2 1012.0 0.0
 
Date/Time
CST
Temp
°C
App
Temp
°C
Dew
Point
°C
Rel
Hum
%
Delta-T
°C
Wind Press
QNH
hPa
Press
MSL
hPa
Rain since
9am
mm
Dir  Spd
km/h
Gust
km/h
Spd
kts
Gust
kts
25/11:30pm 25.6 25.9 19.5 69 3.9 ESE 17 22 9 12 1012.2 1012.0 0.0
25/11:00pm 26.0 26.2 19.4 67 4.3 ESE 17 20 9 11 1012.4 1012.2 0.0
25/10:30pm 26.2 27.0 19.1 65 4.6 ESE 13 17 7 9 1012.5 1012.3 0.0
25/10:00pm 26.7 27.1 19.1 63 4.9 ESE 15 22 8 12 1012.4 1012.2 0.0
25/09:30pm 26.9 27.9 19.5 64 4.8 ESE 13 20 7 11 1012.3 1012.1 0.0
25/09:00pm 26.7 29.5 21.5 73 3.5 ESE 9 13 5 7 1012.3 1012.1 0.0
25/08:30pm 27.1 30.4 22.5 76 3.1 E 9 13 5 7 1012.1 1011.9 0.0
25/08:00pm 27.1 30.5 22.7 77 3.0 E 9 13 5 7 1011.9 1011.7 0.0
25/07:30pm 27.5 30.9 22.7 75 3.3 E 9 13 5 7 1011.5 1011.3 0.0
25/07:00pm 27.8 31.1 22.5 73 3.6 E 9 13 5 7 1011.3 1011.1 0.0
25/06:30pm 28.3 30.5 21.8 68 4.4 E 13 19 7 10 1010.8 1010.7 0.0
25/06:00pm 29.0 31.3 22.0 66 4.7 ENE 13 20 7 11 1010.4 1010.3 0.0
25/05:30pm 29.7 31.9 21.9 63 5.3 ENE 13 20 7 11 1010.3 1010.2 0.0
25/05:00pm 29.9 32.4 21.8 62 5.5 ENE 11 17 6 9 1009.9 1009.8 0.0
25/04:30pm 30.2 32.1 21.3 59 6.0 ENE 13 20 7 11 1009.8 1009.7 0.0
25/04:00pm 31.0 33.0 21.5 57 6.4 ENE 13 20 7 11 1009.6 1009.5 0.0
25/03:30pm 31.2 32.5 20.8 54 7.0 ENE 15 20 8 11 1009.4 1009.3 0.0
25/03:00pm 33.1 32.2 17.7 40 9.9 ESE 19 28 10 15 1009.6 1009.5 0.0
25/02:30pm 33.7 33.7 18.2 39 10.1 ESE 15 22 8 12 1009.7 1009.6 0.0
25/02:00pm 32.7 31.9 18.1 42 9.4 ESE 19 30 10 16 1010.1 1010.0 0.0
25/01:30pm 32.7 32.3 18.1 42 9.4 E 17 22 9 12 1010.4 1010.3 0.0
25/01:00pm 34.1 33.6 19.0 41 9.9 SE 20 28 11 15 1010.8 1010.7 0.0
25/12:30pm 32.6 32.0 18.4 43 9.2 E 19 28 10 15 1011.4 1011.2 0.0
25/12:00pm 32.6 32.1 19.1 44 8.8 E 20 32 11 17 1011.7 1011.5 0.0
25/11:30am 32.2 32.0 19.8 48 8.2 ESE 20 30 11 16 1011.9 1011.7 0.0
25/11:00am 31.9 31.8 19.9 49 7.9 SE 20 30 11 16 1012.4 1012.2 0.0
25/10:30am 30.7 30.3 19.4 51 7.4 ESE 20 30 11 16 1012.8 1012.6 0.0
25/10:00am 29.1 28.9 19.7 57 6.1 SE 20 30 11 16 1013.0 1012.8 0.0
25/09:30am 28.6 28.6 19.8 59 5.8 SE 19 26 10 14 1013.0 1012.8 0.0
25/09:00am 27.6 28.5 20.9 67 4.4 SE 17 22 9 12 1012.9 1012.7 0.0
25/08:30am 26.2 27.4 21.4 75 3.2 SSE 17 22 9 12 1012.9 1012.7 0.0
25/08:00am 24.7 27.2 21.8 84 1.9 SSE 11 17 6 9 1012.7 1012.5 0.0
25/07:30am 23.6 26.2 21.9 90 1.1 S 11 15 6 8 1012.4 1012.2 0.0
25/07:00am 23.2 25.8 22.0 93 0.8 S 11 15 6 8 1012.1 1011.9 0.0
25/06:30am 23.1 26.1 21.9 93 0.8 SSE 9 11 5 6 1011.9 1011.7 0.0
25/06:00am 23.3 26.3 21.9 92 0.9 SSE 9 11 5 6 1011.7 1011.5 0.0
25/05:30am 23.4 26.3 21.7 90 1.1 SE 9 13 5 7 1011.5 1011.3 0.0
25/05:00am 23.8 26.4 21.9 89 1.3 SSE 11 13 6 7 1011.3 1011.1 0.0
25/04:30am 24.0 26.2 21.9 88 1.4 SSE 13 15 7 8 1011.0 1010.9 0.0
25/04:00am 24.4 26.6 21.9 86 1.7 SE 13 19 7 10 1010.9 1010.8 0.0
25/03:30am 24.7 26.9 21.8 84 1.9 SE 13 17 7 9 1011.0 1010.9 0.0
25/03:00am 24.8 26.9 21.7 83 2.1 SE 13 17 7 9 1011.3 1011.1 0.0
25/02:30am 25.2 26.5 21.7 81 2.3 SE 17 20 9 11 1011.4 1011.2 0.0
25/02:00am 25.4 27.0 21.5 79 2.6 SE 15 20 8 11 1011.6 1011.4 0.0
25/01:30am 25.7 26.9 21.4 77 2.9 SE 17 24 9 13 1011.6 1011.4 0.0
25/01:00am 25.9 26.9 21.1 75 3.2 SE 17 22 9 12 1011.7 1011.5 0.0
25/12:30am 25.9 27.6 20.9 74 3.3 SE 13 19 7 10 1011.8 1011.6 0.0
25/12:00am 26.3 27.7 21.1 73 3.4 ESE 15 19 8 10 1011.9 1011.7 0.0
 
Date/Time
CST
Temp
°C
App
Temp
°C
Dew
Point
°C
Rel
Hum
%
Delta-T
°C
Wind Press
QNH
hPa
Press
MSL
hPa
Rain since
9am
mm
Dir  Spd
km/h
Gust
km/h
Spd
kts
Gust
kts
24/11:30pm 26.7 28.1 21.0 71 3.8 ESE 15 22 8 12 1011.7 1011.5 0.0
24/11:00pm 27.2 28.2 21.0 69 4.1 ESE 17 24 9 13 1011.6 1011.4 0.0
24/10:30pm 27.2 28.4 21.5 71 3.8 ESE 17 24 9 13 1011.4 1011.2 0.0
24/10:00pm 27.0 29.3 22.0 74 3.4 ESE 13 19 7 10 1011.5 1011.3 0.0
24/09:30pm 26.9 29.5 22.7 78 2.8 ESE 13 17 7 9 1011.0 1010.9 0.0
24/09:00pm 26.6 30.7 23.3 82 2.3 E 7 9 4 5 1010.9 1010.8 0.0
24/08:30pm 26.6 30.8 23.5 83 2.1 ESE 7 11 4 6 1010.4 1010.3 0.0
24/08:00pm 27.0 31.1 23.3 80 2.5 ESE 7 9 4 5 1009.8 1009.7 0.0
24/07:30pm 27.5 30.9 23.3 78 2.9 SE 11 13 6 7 1009.4 1009.3 0.0
24/07:00pm 27.6 31.3 23.2 77 3.0 SE 9 11 5 6 1009.3 1009.2 0.0
24/06:30pm 27.6 31.3 23.2 77 3.0 ESE 9 11 5 6 1009.5 1009.4 0.0
24/06:00pm 27.9 31.1 23.1 75 3.3 E 11 15 6 8 1009.7 1009.6 0.0
24/05:30pm 28.6 32.2 23.1 72 3.8 ENE 9 17 5 9 1009.8 1009.7 0.0
24/05:00pm 28.6 31.7 22.8 71 4.0 ENE 11 15 6 8 1009.8 1009.7 0.0
24/04:30pm 29.1 31.5 22.3 66 4.6 ENE 13 19 7 10 1009.6 1009.5 0.0
24/04:00pm 29.6 31.6 22.3 65 5.0 NE 15 20 8 11 1009.6 1009.5 0.0
24/03:30pm 30.3 32.7 22.2 62 5.5 ENE 13 19 7 10 1009.8 1009.7 0.0
24/03:00pm 30.3 32.2 21.4 59 6.0 NE 13 19 7 10 1010.0 1009.9 0.0
24/02:30pm 32.0 33.8 21.2 52 7.3 ENE 13 19 7 10 1010.1 1010.0 0.0
24/02:00pm 31.2 32.2 20.2 52 7.3 E 15 22 8 12 1010.3 1010.2 0.0
24/01:30pm 31.6 31.7 19.2 47 8.1 ESE 17 22 9 12 1010.5 1010.4 0.0
24/01:00pm 32.1 31.7 19.0 45 8.6 SE 19 28 10 15 1010.9 1010.8 0.0
24/12:30pm 30.9 29.8 18.6 48 8.0 SE 22 32 12 17 1011.5 1011.3 0.0
24/12:00pm 31.6 31.0 18.9 47 8.3 ESE 20 28 11 15 1011.8 1011.6 0.0
24/11:30am 31.1 31.5 19.8 51 7.4 ESE 17 26 9 14 1012.3 1012.1 0.0
24/11:00am 30.1 30.6 20.1 55 6.6 SE 17 24 9 13 1012.7 1012.5 0.0
24/10:30am 29.6 30.2 20.2 57 6.2 SE 17 24 9 13 1012.6 1012.4 0.0
24/10:00am 28.2 28.9 20.5 63 5.1 SE 17 22 9 12 1013.0 1012.8 0.0
24/09:30am 27.6 28.4 20.7 66 4.6 SE 17 20 9 11 1013.1 1012.9 0.0
24/09:00am 26.8 28.6 21.1 71 3.8 SSE 13 19 7 10 1012.6 1012.4 0.0
24/08:30am 25.7 27.0 21.6 78 2.7 SSE 17 22 9 12 1012.5 1012.3 0.0
24/08:00am 24.3 27.2 21.8 86 1.7 S 9 17 5 9 1012.3 1012.1 0.0
24/07:30am 23.3 25.7 21.6 90 1.1 SSE 11 17 6 9 1011.8 1011.6 0.0
24/07:00am 23.1 25.1 21.5 91 1.1 SSE 13 17 7 9 1011.4 1011.2 0.0
24/06:30am 23.4 25.9 21.8 91 1.1 S 11 17 6 9 1010.8 1010.7 0.0
24/06:00am 23.4 25.6 21.8 91 1.1 S 13 19 7 10 1010.6 1010.5 0.0
24/05:30am 23.4 25.7 22.0 92 0.9 S 13 20 7 11 1010.6 1010.5 0.0
24/05:00am 23.0 26.0 22.0 94 0.7 S 9 15 5 8 1010.5 1010.4 0.0
24/04:30am 23.0 26.0 22.0 94 0.7 S 9 13 5 7 1010.7 1010.6 0.0
24/04:00am 23.0 26.4 22.0 94 0.7 SSE 7 11 4 6 1010.9 1010.8 0.0
24/03:30am 23.2 26.7 21.8 92 0.9 SSE 6 6 3 3 1011.0 1010.9 0.0
24/03:00am 23.8 27.4 22.1 90 1.1 SSE 6 9 3 5 1011.1 1011.0 0.0
24/02:30am 23.9 27.5 22.3 91 1.1 SSE 7 13 4 7 1010.8 1010.7 0.0
24/02:00am 24.3 28.2 22.6 90 1.1 SSE 6 6 3 3 1011.1 1011.0 0.0
24/01:30am 24.8 28.6 22.7 88 1.4 SSE 7 9 4 5 1011.1 1011.0 0.0
24/01:00am 25.5 29.3 22.8 85 1.8 SE 7 11 4 6 1011.4 1011.2 0.0
24/12:30am 25.9 29.7 23.4 86 1.7 ESE 9 13 5 7 1011.4 1011.2 0.0
24/12:00am 25.9 30.3 23.8 88 1.4 ESE 7 9 4 5 1011.1 1011.0 0.0
 
Date/Time
CST
Temp
°C
App
Temp
°C
Dew
Point
°C
Rel
Hum
%
Delta-T
°C
Wind Press
QNH
hPa
Press
MSL
hPa
Rain since
9am
mm
Dir  Spd
km/h
Gust
km/h
Spd
kts
Gust
kts
23/11:30pm 25.8 30.1 23.7 88 1.4 ENE 7 9 4 5 1011.1 1011.0 0.0
23/11:00pm 25.9 30.4 23.6 87 1.6 NNE 6 7 3 4 1011.1 1011.0 0.0
23/10:30pm 26.3 32.0 23.8 86 1.7 CALM 0 0 0 0 1011.4 1011.2 0.0
23/10:00pm 26.2 31.9 23.7 86 1.7 CALM 0 0 0 0 1011.5 1011.3 0.0
23/09:30pm 26.2 31.8 23.5 85 1.8 CALM 0 0 0 0 1011.3 1011.1 0.0
23/09:00pm 26.6 32.3 23.7 84 2.0 CALM 0 0 0 0 1011.0 1010.9 0.0
23/08:30pm 27.0 31.5 23.7 82 2.3 NNE 6 6 3 3 1010.6 1010.5 0.0
23/08:00pm 27.5 31.8 23.7 80 2.6 NNE 7 9 4 5 1010.4 1010.3 0.0
23/07:30pm 27.3 32.4 23.3 79 2.7 NNE 2 6 1 3 1010.0 1009.9 0.0
23/07:00pm 27.6 32.1 23.0 76 3.1 NNE 4 7 2 4 1009.5 1009.4 0.0
23/06:30pm 27.9 31.8 22.6 73 3.6 NNE 6 7 3 4 1009.1 1009.0 0.0
23/06:00pm 28.5 31.4 21.8 67 4.5 NNE 9 9 5 5 1008.7 1008.6 0.0
23/05:30pm 28.9 31.6 21.4 64 5.0 NNE 9 13 5 7 1008.6 1008.5 0.0
23/05:00pm 29.0 31.4 21.5 64 5.0 NNE 11 15 6 8 1008.5 1008.4 0.0
23/04:30pm 29.7 31.3 20.8 58 5.9 NE 13 19 7 10 1008.3 1008.2 0.0
23/04:00pm 30.3 32.2 21.4 59 6.0 NE 13 22 7 12 1008.2 1008.1 0.0
23/03:30pm 31.1 32.2 20.4 53 7.1 NNE 15 19 8 10 1008.0 1007.9 0.0
23/03:00pm 30.8 31.7 20.1 53 7.1 NNW 15 20 8 11 1008.1 1008.0 0.0
23/02:30pm 31.9 33.9 19.9 49 7.9 SW 9 13 5 7 1008.3 1008.2 0.0
23/02:00pm 32.6 33.7 18.8 44 9.0 ESE 11 17 6 9 1008.6 1008.5 0.0
23/01:30pm 32.4 32.4 18.2 42 9.2 ESE 15 24 8 13 1009.0 1008.9 0.0
23/01:00pm 31.5 32.1 18.5 46 8.4 S 13 24 7 13 1009.5 1009.4 0.0
23/12:30pm 32.2 33.6 19.5 47 8.4 ESE 11 19 6 10 1010.1 1010.0 0.0

Other Formats:

Comma delimited format used in spreadsheet applications
http://www.bom.gov.au/fwo/IDD60801/IDD60801.95142.axf

JavaScript Object Notation format (JSON) in row-major order
http://www.bom.gov.au/fwo/IDD60801/IDD60801.95142.json